createdAt,value
2018-06-24T00:00:57.214Z,3.00
2018-06-24T00:01:57.203Z,3.00
2018-06-24T00:03:18.205Z,3.10
2018-06-24T00:03:57.196Z,3.20
2018-06-24T00:04:57.185Z,3.00
2018-06-24T00:05:57.177Z,2.80
2018-06-24T00:06:57.170Z,3.10
2018-06-24T00:07:57.165Z,2.90
2018-06-24T00:09:18.166Z,2.80
2018-06-24T00:09:57.152Z,2.80
2018-06-24T00:10:57.147Z,3.10
2018-06-24T00:11:57.157Z,3.00
2018-06-24T00:12:57.133Z,2.90
2018-06-24T00:13:57.181Z,3.30
2018-06-24T00:15:18.125Z,3.00
2018-06-24T00:15:57.107Z,3.20
2018-06-24T00:16:57.102Z,3.20
2018-06-24T00:17:57.092Z,3.70
2018-06-24T00:18:57.091Z,3.30
2018-06-24T00:19:57.081Z,3.30
2018-06-24T00:21:18.087Z,2.90
2018-06-24T00:21:57.066Z,2.80
2018-06-24T00:22:57.066Z,3.40
2018-06-24T00:23:57.059Z,3.10
2018-06-24T00:24:57.049Z,2.80
2018-06-24T00:25:57.051Z,3.10
2018-06-24T00:27:18.052Z,2.70
2018-06-24T00:27:57.024Z,2.80
2018-06-24T00:28:57.021Z,2.90
2018-06-24T00:29:57.013Z,2.90
2018-06-24T00:30:57.005Z,2.80
2018-06-24T00:31:56.997Z,2.80
2018-06-24T00:33:17.999Z,3.10
2018-06-24T00:33:57.008Z,2.90
2018-06-24T00:34:56.975Z,2.80
2018-06-24T00:35:56.971Z,2.70
2018-06-24T00:36:56.962Z,2.70
2018-06-24T00:37:56.976Z,2.80
2018-06-24T00:39:17.957Z,2.80
2018-06-24T00:39:56.944Z,2.80
2018-06-24T00:40:56.953Z,2.90
2018-06-24T00:41:56.938Z,2.90
2018-06-24T00:42:56.920Z,2.80
2018-06-24T00:43:56.912Z,2.70
2018-06-24T00:45:17.916Z,2.90
2018-06-24T00:45:56.902Z,3.30
2018-06-24T00:46:56.914Z,3.10
2018-06-24T00:47:56.907Z,3.50
2018-06-24T00:48:56.890Z,3.60
2018-06-24T00:49:56.876Z,3.00
2018-06-24T00:51:17.872Z,3.50
2018-06-24T00:51:56.884Z,2.70
2018-06-24T00:52:56.853Z,3.40
2018-06-24T00:53:56.860Z,3.10
2018-06-24T00:54:56.866Z,3.20
2018-06-24T00:55:56.828Z,3.20
2018-06-24T00:57:17.830Z,3.50
2018-06-24T00:57:56.815Z,3.40
2018-06-24T00:58:56.811Z,3.30
2018-06-24T00:59:56.816Z,3.30
2018-06-24T01:00:56.801Z,3.10
2018-06-24T01:01:56.787Z,3.10
2018-06-24T01:03:17.790Z,2.70
2018-06-24T01:03:56.774Z,3.50
2018-06-24T01:04:56.766Z,3.50
2018-06-24T01:05:56.765Z,3.50
2018-06-24T01:06:56.773Z,3.30
2018-06-24T01:07:56.747Z,3.40
2018-06-24T01:09:17.744Z,3.50
2018-06-24T01:09:56.731Z,3.20
2018-06-24T01:10:56.723Z,3.40
2018-06-24T01:11:56.728Z,3.00
2018-06-24T01:12:56.715Z,3.10
2018-06-24T01:13:56.711Z,3.30
2018-06-24T01:15:17.702Z,3.00
2018-06-24T01:15:56.689Z,3.40
2018-06-24T01:16:56.683Z,3.20
2018-06-24T01:17:56.679Z,3.30
2018-06-24T01:18:56.667Z,3.40
2018-06-24T01:19:56.661Z,3.20
2018-06-24T01:21:17.695Z,3.00
2018-06-24T01:21:57.650Z,3.00
2018-06-24T01:22:56.641Z,3.20
2018-06-24T01:23:56.645Z,3.20
2018-06-24T01:24:56.630Z,3.30
2018-06-24T01:25:56.621Z,3.10
2018-06-24T01:27:17.625Z,3.10
2018-06-24T01:27:56.636Z,3.30
2018-06-24T01:28:56.611Z,3.10
2018-06-24T01:29:56.593Z,3.30
2018-06-24T01:30:56.588Z,3.20
2018-06-24T01:31:56.577Z,3.30
2018-06-24T01:33:17.579Z,3.40
2018-06-24T01:33:56.574Z,3.60
2018-06-24T01:34:56.554Z,3.20
2018-06-24T01:35:56.548Z,3.80
2018-06-24T01:36:56.540Z,3.00
2018-06-24T01:37:56.542Z,2.80
2018-06-24T01:39:17.537Z,2.80
2018-06-24T01:39:56.521Z,3.20
2018-06-24T01:40:57.148Z,2.70
2018-06-24T01:41:56.507Z,3.10
2018-06-24T01:42:56.498Z,3.00
2018-06-24T01:43:56.494Z,3.20
2018-06-24T01:45:17.491Z,3.10
2018-06-24T01:45:56.478Z,2.90
2018-06-24T01:46:56.484Z,3.00
2018-06-24T01:47:56.470Z,3.00
2018-06-24T01:48:56.467Z,3.50
2018-06-24T01:49:56.451Z,3.10
2018-06-24T01:51:17.452Z,2.70
2018-06-24T01:51:56.436Z,2.90
2018-06-24T01:52:56.433Z,3.00
2018-06-24T01:53:56.439Z,2.90
2018-06-24T01:54:56.420Z,3.00
2018-06-24T01:55:56.440Z,3.10
2018-06-24T01:57:17.427Z,2.90
2018-06-24T01:57:56.396Z,3.00
2018-06-24T01:58:56.386Z,3.20
2018-06-24T01:59:56.381Z,3.40
2018-06-24T02:00:56.378Z,3.80
2018-06-24T02:01:56.368Z,3.60
2018-06-24T02:03:17.365Z,2.90
2018-06-24T02:03:56.351Z,3.40
2018-06-24T02:04:56.342Z,3.30
2018-06-24T02:05:56.334Z,3.20
2018-06-24T02:06:56.330Z,3.40
2018-06-24T02:07:56.318Z,3.50
2018-06-24T02:09:17.319Z,3.10
2018-06-24T02:09:56.311Z,3.10
2018-06-24T02:10:56.297Z,3.30
2018-06-24T02:11:56.300Z,3.90
2018-06-24T02:12:56.283Z,3.00
2018-06-24T02:13:56.281Z,3.50
2018-06-24T02:15:17.278Z,3.70
2018-06-24T02:15:56.267Z,3.80
2018-06-24T02:16:56.258Z,3.10
2018-06-24T02:17:56.251Z,3.10
2018-06-24T02:18:56.245Z,3.70
2018-06-24T02:19:56.241Z,3.70
2018-06-24T02:21:17.246Z,4.00
2018-06-24T02:21:56.223Z,3.70
2018-06-24T02:22:56.220Z,3.50
2018-06-24T02:23:56.208Z,3.70
2018-06-24T02:24:56.207Z,3.60
2018-06-24T02:25:56.195Z,4.30
2018-06-24T02:27:17.194Z,4.00
2018-06-24T02:27:56.192Z,4.00
2018-06-24T02:28:56.173Z,4.00
2018-06-24T02:29:56.191Z,4.10
2018-06-24T02:30:56.160Z,3.70
2018-06-24T02:31:56.150Z,3.60
2018-06-24T02:33:17.150Z,3.60
2018-06-24T02:33:56.136Z,4.10
2018-06-24T02:34:56.135Z,3.70
2018-06-24T02:35:56.122Z,3.90
2018-06-24T02:36:56.126Z,4.00
2018-06-24T02:37:56.118Z,3.40
2018-06-24T02:39:17.106Z,4.00
2018-06-24T02:39:56.105Z,3.80
2018-06-24T02:40:56.084Z,4.00
2018-06-24T02:41:56.085Z,3.90
2018-06-24T02:42:56.076Z,3.90
2018-06-24T02:43:56.078Z,4.00
2018-06-24T02:45:17.076Z,3.90
2018-06-24T02:45:56.049Z,3.80
2018-06-24T02:46:56.050Z,4.10
2018-06-24T02:47:56.034Z,3.90
2018-06-24T02:48:56.031Z,3.90
2018-06-24T02:49:56.018Z,4.00
2018-06-24T02:51:17.031Z,3.80
2018-06-24T02:51:56.003Z,3.70
2018-06-24T02:52:55.997Z,3.60
2018-06-24T02:53:55.993Z,4.10
2018-06-24T02:54:55.990Z,3.90
2018-06-24T02:55:55.978Z,4.10
2018-06-24T02:57:16.974Z,4.30
2018-06-24T02:57:55.960Z,3.90
2018-06-24T02:58:55.950Z,3.80
2018-06-24T02:59:55.945Z,4.00
2018-06-24T03:00:55.937Z,4.10
2018-06-24T03:01:55.941Z,4.60
2018-06-24T03:03:16.927Z,4.40
2018-06-24T03:03:55.929Z,4.00
2018-06-24T03:04:55.909Z,4.00
2018-06-24T03:05:55.902Z,4.10
2018-06-24T03:06:55.893Z,4.30
2018-06-24T03:07:55.983Z,3.90
2018-06-24T03:09:16.885Z,4.10
2018-06-24T03:09:55.875Z,4.10
2018-06-24T03:10:55.867Z,4.20
2018-06-24T03:11:55.862Z,4.00
2018-06-24T03:12:55.853Z,3.90
2018-06-24T03:13:55.850Z,3.50
2018-06-24T03:15:16.843Z,4.10
2018-06-24T03:15:55.834Z,3.80
2018-06-24T03:16:55.858Z,3.90
2018-06-24T03:17:55.821Z,3.40
2018-06-24T03:18:55.814Z,3.70
2018-06-24T03:19:55.807Z,4.10
2018-06-24T03:21:16.838Z,3.80
2018-06-24T03:21:55.787Z,3.70
2018-06-24T03:22:55.780Z,3.40
2018-06-24T03:23:55.772Z,3.40
2018-06-24T03:24:55.766Z,3.70
2018-06-24T03:25:55.770Z,3.80
2018-06-24T03:27:16.753Z,4.10
2018-06-24T03:27:55.740Z,4.00
2018-06-24T03:28:55.733Z,3.70
2018-06-24T03:29:55.735Z,4.30
2018-06-24T03:30:55.730Z,3.80
2018-06-24T03:31:55.715Z,4.00
2018-06-24T03:33:16.712Z,4.00
2018-06-24T03:33:55.702Z,3.60
2018-06-24T03:34:55.691Z,3.60
2018-06-24T03:35:55.689Z,3.70
2018-06-24T03:36:55.678Z,3.80
2018-06-24T03:37:55.678Z,3.70
2018-06-24T03:39:16.670Z,3.70
2018-06-24T03:39:55.662Z,3.50
2018-06-24T03:40:55.652Z,3.40
2018-06-24T03:41:55.642Z,3.30
2018-06-24T03:42:55.637Z,3.50
2018-06-24T03:43:55.628Z,3.80
2018-06-24T03:45:16.626Z,4.10
2018-06-24T03:45:55.613Z,3.60
2018-06-24T03:46:55.606Z,3.70
2018-06-24T03:47:55.606Z,3.50
2018-06-24T03:48:55.595Z,4.00
2018-06-24T03:49:55.587Z,3.80
2018-06-24T03:51:16.584Z,3.60
2018-06-24T03:51:55.570Z,3.60
2018-06-24T03:52:55.565Z,3.40
2018-06-24T03:53:55.557Z,3.80
2018-06-24T03:54:55.561Z,3.70
2018-06-24T03:55:55.544Z,3.90
2018-06-24T03:57:16.558Z,3.70
2018-06-24T03:57:55.530Z,3.90
2018-06-24T03:58:55.526Z,4.20
2018-06-24T03:59:55.552Z,3.70
2018-06-24T04:00:55.511Z,4.00
2018-06-24T04:01:55.506Z,3.40
2018-06-24T04:03:16.502Z,4.10
2018-06-24T04:03:55.488Z,3.80
2018-06-24T04:04:55.484Z,4.10
2018-06-24T04:05:55.475Z,3.80
2018-06-24T04:06:55.469Z,3.80
2018-06-24T04:07:55.461Z,4.10
2018-06-24T04:09:16.467Z,4.40
2018-06-24T04:09:55.451Z,3.90
2018-06-24T04:10:55.471Z,4.20
2018-06-24T04:11:55.430Z,4.20
2018-06-24T04:12:55.432Z,4.10
2018-06-24T04:13:55.420Z,4.60
2018-06-24T04:15:16.419Z,4.30
2018-06-24T04:15:55.406Z,3.90
2018-06-24T04:16:55.403Z,4.50
2018-06-24T04:17:55.389Z,4.10
2018-06-24T04:18:55.389Z,4.00
2018-06-24T04:19:55.403Z,4.10
2018-06-24T04:21:16.387Z,4.20
2018-06-24T04:21:55.365Z,4.30
2018-06-24T04:22:55.357Z,4.00
2018-06-24T04:23:55.352Z,3.70
2018-06-24T04:24:55.345Z,3.90
2018-06-24T04:25:55.335Z,4.20
2018-06-24T04:27:16.331Z,3.40
2018-06-24T04:27:55.322Z,4.00
2018-06-24T04:28:55.322Z,4.40
2018-06-24T04:29:55.329Z,4.10
2018-06-24T04:30:55.305Z,3.90
2018-06-24T04:31:55.315Z,4.30
2018-06-24T04:33:16.303Z,3.80
2018-06-24T04:33:55.283Z,4.20
2018-06-24T04:34:55.274Z,4.10
2018-06-24T04:35:55.275Z,4.30
2018-06-24T04:36:55.277Z,4.10
2018-06-24T04:37:55.256Z,4.20
2018-06-24T04:39:16.295Z,4.20
2018-06-24T04:39:55.244Z,4.30
2018-06-24T04:40:55.232Z,4.10
2018-06-24T04:41:55.228Z,4.20
2018-06-24T04:42:55.219Z,4.50
2018-06-24T04:43:55.210Z,4.60
2018-06-24T04:45:16.211Z,4.50
2018-06-24T04:45:55.232Z,4.10
2018-06-24T04:46:55.193Z,3.90
2018-06-24T04:47:55.184Z,4.30
2018-06-24T04:48:55.186Z,4.90
2018-06-24T04:49:55.175Z,4.20
2018-06-24T04:51:16.172Z,4.40
2018-06-24T04:51:55.163Z,4.00
2018-06-24T04:52:55.150Z,4.10
2018-06-24T04:53:55.145Z,4.60
2018-06-24T04:54:55.136Z,3.80
2018-06-24T04:55:55.134Z,4.00
2018-06-24T04:57:16.136Z,4.00
2018-06-24T04:57:55.119Z,3.90
2018-06-24T04:58:55.110Z,3.60
2018-06-24T04:59:55.109Z,3.90
2018-06-24T05:00:55.096Z,3.90
2018-06-24T05:01:55.091Z,3.90
2018-06-24T05:03:16.094Z,3.60
2018-06-24T05:03:55.079Z,3.70
2018-06-24T05:04:55.071Z,3.60
2018-06-24T05:05:55.066Z,3.30
2018-06-24T05:06:55.059Z,3.90
2018-06-24T05:07:55.051Z,3.70
2018-06-24T05:09:16.054Z,3.30
2018-06-24T05:09:55.057Z,3.80
2018-06-24T05:10:55.054Z,3.50
2018-06-24T05:11:55.030Z,3.20
2018-06-24T05:12:55.023Z,3.10
2018-06-24T05:13:55.020Z,3.30
2018-06-24T05:15:16.026Z,3.60
2018-06-24T05:15:55.000Z,4.00
2018-06-24T05:16:54.998Z,3.50
2018-06-24T05:17:54.985Z,3.70
2018-06-24T05:18:54.980Z,3.40
2018-06-24T05:19:54.973Z,3.40
2018-06-24T05:21:15.972Z,3.50
2018-06-24T05:21:54.962Z,3.50
2018-06-24T05:22:54.955Z,3.60
2018-06-24T05:23:54.949Z,3.70
2018-06-24T05:24:54.951Z,3.90
2018-06-24T05:25:54.935Z,3.50
2018-06-24T05:27:15.934Z,3.40
2018-06-24T05:27:54.926Z,3.80
2018-06-24T05:28:54.920Z,3.60
2018-06-24T05:29:54.910Z,3.50
2018-06-24T05:30:54.905Z,3.50
2018-06-24T05:31:54.895Z,3.60
2018-06-24T05:33:15.898Z,3.60
2018-06-24T05:33:54.882Z,3.20
2018-06-24T05:34:54.880Z,3.60
2018-06-24T05:35:54.873Z,3.70
2018-06-24T05:36:54.864Z,3.70
2018-06-24T05:37:54.860Z,3.50
2018-06-24T05:39:15.858Z,3.70
2018-06-24T05:39:54.845Z,3.70
2018-06-24T05:40:54.840Z,3.80
2018-06-24T05:41:54.833Z,3.60
2018-06-24T05:42:54.879Z,3.60
2018-06-24T05:43:54.822Z,3.80
2018-06-24T05:45:15.826Z,3.60
2018-06-24T05:45:54.832Z,3.40
2018-06-24T05:46:54.816Z,3.60
2018-06-24T05:47:54.801Z,4.00
2018-06-24T05:48:54.892Z,3.50
2018-06-24T05:49:54.788Z,3.60
2018-06-24T05:51:15.827Z,3.70
2018-06-24T05:51:54.784Z,3.60
2018-06-24T05:52:54.768Z,3.60
2018-06-24T05:53:54.764Z,3.90
2018-06-24T05:54:54.757Z,3.70
2018-06-24T05:55:54.753Z,3.80
2018-06-24T05:57:15.759Z,3.70
2018-06-24T05:57:54.745Z,3.40
2018-06-24T05:58:54.740Z,4.00
2018-06-24T05:59:54.736Z,3.50
2018-06-24T06:00:54.728Z,3.70
2018-06-24T06:01:54.720Z,3.60
2018-06-24T06:03:15.717Z,3.40
2018-06-24T06:03:54.709Z,3.80
2018-06-24T06:04:54.699Z,3.80
2018-06-24T06:05:54.692Z,3.70
2018-06-24T06:06:54.683Z,3.20
2018-06-24T06:07:54.677Z,3.40
2018-06-24T06:09:15.682Z,3.70
2018-06-24T06:09:54.671Z,3.40
2018-06-24T06:10:54.666Z,3.60
2018-06-24T06:11:54.684Z,3.40
2018-06-24T06:12:54.653Z,3.60
2018-06-24T06:13:54.648Z,3.40
2018-06-24T06:15:15.642Z,3.40
2018-06-24T06:15:54.631Z,3.20
2018-06-24T06:16:54.626Z,3.50
2018-06-24T06:17:54.621Z,3.50
2018-06-24T06:18:54.616Z,3.70
2018-06-24T06:19:54.621Z,3.30
2018-06-24T06:21:15.609Z,2.90
2018-06-24T06:21:54.596Z,3.30
2018-06-24T06:22:54.640Z,3.60
2018-06-24T06:23:54.589Z,3.80
2018-06-24T06:24:54.592Z,3.30
2018-06-24T06:25:54.578Z,3.60
2018-06-24T06:27:15.575Z,3.30
2018-06-24T06:27:54.571Z,3.50
2018-06-24T06:28:54.573Z,3.20
2018-06-24T06:29:54.555Z,3.30
2018-06-24T06:30:54.550Z,3.10
2018-06-24T06:31:54.548Z,3.00
2018-06-24T06:33:15.552Z,3.30
2018-06-24T06:33:54.529Z,2.80
2018-06-24T06:34:54.533Z,3.20
2018-06-24T06:35:54.519Z,2.80
2018-06-24T06:36:54.564Z,2.90
2018-06-24T06:37:54.512Z,2.80
2018-06-24T06:39:15.509Z,2.80
2018-06-24T06:39:54.527Z,3.10
2018-06-24T06:40:54.496Z,3.10
2018-06-24T06:41:54.487Z,3.30
2018-06-24T06:42:54.479Z,2.80
2018-06-24T06:43:54.476Z,3.00
2018-06-24T06:45:15.518Z,3.20
2018-06-24T06:45:54.467Z,3.10
2018-06-24T06:46:54.461Z,3.20
2018-06-24T06:47:54.468Z,2.90
2018-06-24T06:48:54.448Z,2.80
2018-06-24T06:49:54.442Z,3.10
2018-06-24T06:51:15.441Z,3.00
2018-06-24T06:51:54.428Z,3.10
2018-06-24T06:52:54.424Z,3.00
2018-06-24T06:53:54.418Z,3.00
2018-06-24T06:54:54.415Z,2.60
2018-06-24T06:55:54.409Z,2.90
2018-06-24T06:57:15.410Z,3.00
2018-06-24T06:57:54.469Z,3.00
2018-06-24T06:58:54.391Z,2.80
2018-06-24T06:59:54.388Z,3.20
2018-06-24T07:00:54.378Z,2.60
2018-06-24T07:01:54.380Z,3.30
2018-06-24T07:03:15.390Z,3.20
2018-06-24T07:03:54.363Z,2.90
2018-06-24T07:04:54.371Z,3.30
2018-06-24T07:05:54.393Z,2.80
2018-06-24T07:06:54.352Z,3.20
2018-06-24T07:07:54.352Z,3.20
2018-06-24T07:09:15.351Z,3.00
2018-06-24T07:09:54.331Z,3.40
2018-06-24T07:10:54.330Z,3.30
2018-06-24T07:11:54.319Z,3.90
2018-06-24T07:12:54.317Z,3.40
2018-06-24T07:13:54.311Z,2.90
2018-06-24T07:15:15.320Z,2.80
2018-06-24T07:15:54.299Z,2.70
2018-06-24T07:16:54.294Z,2.80
2018-06-24T07:17:54.289Z,3.20
2018-06-24T07:18:54.289Z,2.70
2018-06-24T07:19:54.277Z,2.70
2018-06-24T07:21:15.289Z,2.70
2018-06-24T07:21:54.272Z,3.10
2018-06-24T07:22:54.277Z,2.90
2018-06-24T07:23:54.263Z,2.90
2018-06-24T07:24:54.251Z,2.80
2018-06-24T07:25:54.248Z,2.70
2018-06-24T07:27:15.253Z,3.00
2018-06-24T07:27:54.241Z,3.10
2018-06-24T07:28:54.230Z,2.90
2018-06-24T07:29:54.228Z,3.50
2018-06-24T07:30:54.223Z,2.90
2018-06-24T07:31:54.215Z,2.90
2018-06-24T07:33:15.269Z,3.20
2018-06-24T07:33:54.207Z,3.00
2018-06-24T07:34:54.199Z,3.10
2018-06-24T07:35:54.193Z,2.80
2018-06-24T07:36:54.190Z,3.00
2018-06-24T07:37:54.187Z,2.90
2018-06-24T07:39:15.243Z,3.20
2018-06-24T07:39:54.175Z,3.00
2018-06-24T07:40:54.173Z,2.70
2018-06-24T07:41:54.176Z,2.90
2018-06-24T07:42:54.161Z,2.80
2018-06-24T07:43:54.162Z,2.50
2018-06-24T07:45:15.165Z,2.80
2018-06-24T07:45:54.148Z,2.50
2018-06-24T07:46:54.144Z,2.90
2018-06-24T07:47:54.135Z,2.70
2018-06-24T07:48:54.130Z,3.10
2018-06-24T07:49:54.132Z,3.10
2018-06-24T07:51:15.128Z,3.00
2018-06-24T07:51:54.119Z,2.60
2018-06-24T07:52:54.113Z,3.00
2018-06-24T07:53:54.108Z,2.50
2018-06-24T07:54:54.102Z,2.40
2018-06-24T07:55:54.096Z,2.50
2018-06-24T07:57:15.099Z,2.80
2018-06-24T07:57:54.097Z,2.30
2018-06-24T07:58:54.084Z,2.80
2018-06-24T07:59:54.079Z,2.90
2018-06-24T08:00:54.074Z,2.30
2018-06-24T08:01:54.070Z,2.80
2018-06-24T08:03:15.074Z,2.70
2018-06-24T08:03:54.060Z,3.20
2018-06-24T08:04:54.061Z,2.80
2018-06-24T08:05:54.060Z,2.60
2018-06-24T08:06:54.050Z,2.50
2018-06-24T08:07:54.046Z,2.60
2018-06-24T08:09:15.067Z,2.60
2018-06-24T08:09:54.033Z,3.00
2018-06-24T08:10:54.036Z,2.60
2018-06-24T08:11:54.028Z,2.70
2018-06-24T08:12:54.035Z,2.80
2018-06-24T08:13:54.017Z,2.90
2018-06-24T08:15:15.029Z,2.50
2018-06-24T08:15:54.013Z,2.30
2018-06-24T08:16:54.018Z,2.40
2018-06-24T08:17:54.002Z,2.20
2018-06-24T08:18:53.999Z,2.10
2018-06-24T08:19:53.991Z,2.60
2018-06-24T08:21:15.009Z,2.50
2018-06-24T08:21:53.997Z,2.70
2018-06-24T08:22:54.026Z,2.80
2018-06-24T08:23:53.991Z,3.00
2018-06-24T08:24:53.986Z,2.40
2018-06-24T08:25:53.974Z,2.30
2018-06-24T08:27:14.979Z,2.30
2018-06-24T08:27:53.959Z,2.40
2018-06-24T08:28:53.966Z,2.90
2018-06-24T08:29:53.961Z,2.60
2018-06-24T08:30:53.951Z,3.20
2018-06-24T08:31:53.965Z,2.60
2018-06-24T08:33:14.966Z,3.00
2018-06-24T08:33:53.948Z,3.00
2018-06-24T08:34:53.936Z,2.80
2018-06-24T08:35:53.921Z,2.90
2018-06-24T08:36:53.923Z,2.60
2018-06-24T08:37:53.915Z,2.80
2018-06-24T08:39:14.928Z,2.60
2018-06-24T08:39:53.921Z,2.40
2018-06-24T08:40:53.895Z,2.60
2018-06-24T08:41:53.894Z,2.50
2018-06-24T08:42:53.887Z,2.50
2018-06-24T08:43:53.885Z,2.30
2018-06-24T08:45:14.888Z,2.70
2018-06-24T08:45:53.873Z,2.60
2018-06-24T08:46:53.870Z,2.20
2018-06-24T08:47:53.867Z,3.20
2018-06-24T08:48:53.864Z,2.80
2018-06-24T08:49:53.863Z,2.60
2018-06-24T08:51:14.859Z,2.70
2018-06-24T08:51:53.856Z,3.00
2018-06-24T08:52:53.849Z,2.40
2018-06-24T08:53:53.848Z,2.50
2018-06-24T08:54:53.840Z,2.50
2018-06-24T08:55:53.861Z,3.00
2018-06-24T08:57:14.843Z,2.50
2018-06-24T08:57:53.837Z,2.30
2018-06-24T08:58:53.823Z,3.00
2018-06-24T08:59:53.831Z,2.50
2018-06-24T09:00:53.817Z,2.40
2018-06-24T09:01:53.815Z,2.30
2018-06-24T09:03:14.815Z,2.20
2018-06-24T09:03:53.805Z,2.40
2018-06-24T09:04:53.800Z,2.30
2018-06-24T09:05:53.793Z,2.30
2018-06-24T09:06:53.790Z,2.20
2018-06-24T09:07:53.780Z,2.00
2018-06-24T09:09:14.819Z,2.20
2018-06-24T09:09:53.781Z,2.40
2018-06-24T09:10:53.776Z,2.40
2018-06-24T09:11:53.773Z,2.40
2018-06-24T09:12:53.777Z,2.70
2018-06-24T09:13:53.765Z,2.50
2018-06-24T09:15:14.770Z,2.50
2018-06-24T09:15:53.807Z,2.20
2018-06-24T09:16:53.752Z,2.50
2018-06-24T09:17:53.748Z,3.00
2018-06-24T09:18:53.744Z,2.20
2018-06-24T09:19:53.743Z,2.10
2018-06-24T09:21:14.757Z,2.40
2018-06-24T09:21:53.732Z,2.50
2018-06-24T09:22:53.736Z,2.50
2018-06-24T09:23:53.736Z,2.50
2018-06-24T09:24:53.722Z,2.50
2018-06-24T09:25:53.722Z,2.40
2018-06-24T09:27:14.734Z,2.10
2018-06-24T09:27:53.712Z,2.60
2018-06-24T09:28:53.715Z,2.10
2018-06-24T09:29:53.710Z,2.20
2018-06-24T09:30:53.758Z,2.40
2018-06-24T09:31:53.705Z,2.30
2018-06-24T09:33:14.733Z,2.20
2018-06-24T09:33:53.755Z,2.40
2018-06-24T09:34:53.704Z,2.40
2018-06-24T09:35:53.683Z,2.20
2018-06-24T09:36:53.681Z,2.50
2018-06-24T09:37:53.675Z,2.40
2018-06-24T09:39:14.678Z,2.40
2018-06-24T09:39:53.683Z,2.30
2018-06-24T09:40:53.679Z,2.30
2018-06-24T09:41:53.663Z,2.30
2018-06-24T09:42:53.660Z,2.00
2018-06-24T09:43:53.660Z,2.40
2018-06-24T09:45:14.682Z,2.10
2018-06-24T09:45:53.645Z,2.30
2018-06-24T09:46:53.641Z,2.40
2018-06-24T09:47:53.636Z,2.30
2018-06-24T09:48:53.644Z,2.40
2018-06-24T09:49:53.629Z,2.30
2018-06-24T09:51:14.640Z,2.20
2018-06-24T09:51:53.639Z,2.00
2018-06-24T09:52:53.650Z,2.50
2018-06-24T09:53:53.613Z,2.30
2018-06-24T09:54:53.612Z,2.40
2018-06-24T09:55:53.618Z,2.30
2018-06-24T09:57:14.615Z,2.40
2018-06-24T09:57:53.596Z,2.50
2018-06-24T09:58:53.612Z,2.40
2018-06-24T09:59:53.617Z,2.70
2018-06-24T10:00:53.590Z,2.50
2018-06-24T10:01:53.585Z,2.60
2018-06-24T10:03:14.589Z,2.50
2018-06-24T10:03:53.581Z,3.00
2018-06-24T10:04:53.566Z,2.10
2018-06-24T10:05:53.563Z,2.30
2018-06-24T10:06:53.566Z,2.00
2018-06-24T10:07:53.561Z,2.40
2018-06-24T10:09:14.558Z,2.30
2018-06-24T10:09:53.545Z,2.60
2018-06-24T10:10:53.540Z,2.30
2018-06-24T10:11:53.541Z,2.20
2018-06-24T10:12:53.551Z,2.60
2018-06-24T10:13:53.532Z,2.50
2018-06-24T10:15:14.534Z,2.10
2018-06-24T10:15:53.523Z,2.50
2018-06-24T10:16:53.525Z,2.30
2018-06-24T10:17:53.519Z,2.30
2018-06-24T10:18:54.368Z,2.00
2018-06-24T10:19:53.522Z,2.30
2018-06-24T10:21:14.511Z,2.40
2018-06-24T10:21:53.509Z,2.40
2018-06-24T10:22:53.495Z,2.20
2018-06-24T10:23:53.499Z,2.30
2018-06-24T10:24:53.487Z,2.10
2018-06-24T10:25:53.502Z,2.40
2018-06-24T10:27:14.500Z,2.40
2018-06-24T10:27:53.485Z,2.20
2018-06-24T10:28:53.473Z,2.40
2018-06-24T10:29:53.469Z,2.50
2018-06-24T10:30:53.467Z,2.70
2018-06-24T10:31:53.463Z,2.30
2018-06-24T10:33:14.468Z,2.30
2018-06-24T10:33:53.461Z,2.70
2018-06-24T10:34:53.453Z,2.70
2018-06-24T10:35:53.470Z,2.70
2018-06-24T10:36:53.444Z,2.20
2018-06-24T10:37:53.441Z,2.60
2018-06-24T10:39:14.452Z,2.50
2018-06-24T10:39:53.435Z,2.80
2018-06-24T10:40:53.435Z,2.50
2018-06-24T10:41:53.430Z,2.40
2018-06-24T10:42:53.420Z,2.30
2018-06-24T10:43:53.432Z,2.70
2018-06-24T10:45:14.431Z,2.80
2018-06-24T10:45:53.417Z,2.80
2018-06-24T10:46:53.411Z,2.50
2018-06-24T10:47:53.403Z,2.80
2018-06-24T10:48:53.401Z,2.70
2018-06-24T10:49:53.395Z,2.80
2018-06-24T10:51:14.419Z,3.10
2018-06-24T10:51:53.400Z,3.40
2018-06-24T10:52:53.448Z,3.60
2018-06-24T10:53:53.385Z,3.00
2018-06-24T10:54:53.388Z,3.90
2018-06-24T10:55:53.459Z,3.00
2018-06-24T10:57:14.393Z,3.50
2018-06-24T10:57:53.396Z,3.20
2018-06-24T10:58:53.376Z,3.30
2018-06-24T10:59:53.358Z,3.10
2018-06-24T11:00:53.356Z,3.60
2018-06-24T11:01:53.354Z,3.30
2018-06-24T11:03:14.359Z,3.40
2018-06-24T11:03:53.349Z,4.40
2018-06-24T11:04:53.355Z,4.80
2018-06-24T11:05:53.338Z,3.80
2018-06-24T11:06:53.330Z,3.60
2018-06-24T11:07:53.325Z,3.10
2018-06-24T11:09:14.332Z,3.80
2018-06-24T11:09:53.373Z,3.50
2018-06-24T11:10:53.322Z,3.40
2018-06-24T11:11:53.328Z,3.40
2018-06-24T11:12:53.319Z,3.00
2018-06-24T11:13:53.367Z,3.00
2018-06-24T11:15:14.431Z,3.10
2018-06-24T11:15:53.306Z,3.00
2018-06-24T11:16:53.375Z,3.10
2018-06-24T11:17:53.305Z,3.30
2018-06-24T11:18:53.292Z,2.90
2018-06-24T11:19:53.286Z,3.50
2018-06-24T11:21:14.384Z,3.50
2018-06-24T11:21:53.302Z,3.30
2018-06-24T11:22:53.274Z,3.20
2018-06-24T11:23:53.278Z,3.20
2018-06-24T11:24:53.270Z,3.40
2018-06-24T11:25:53.262Z,3.40
2018-06-24T11:27:14.262Z,3.20
2018-06-24T11:27:53.256Z,2.90
2018-06-24T11:28:53.262Z,3.10
2018-06-24T11:29:53.254Z,3.20
2018-06-24T11:30:53.256Z,3.00
2018-06-24T11:31:53.247Z,3.00
2018-06-24T11:33:14.248Z,3.10
2018-06-24T11:33:53.229Z,3.50
2018-06-24T11:34:53.296Z,3.20
2018-06-24T11:35:53.224Z,2.90
2018-06-24T11:36:53.264Z,3.00
2018-06-24T11:37:53.255Z,3.60
2018-06-24T11:39:14.235Z,2.90
2018-06-24T11:39:53.218Z,3.10
2018-06-24T11:40:53.207Z,3.70
2018-06-24T11:41:53.225Z,3.20
2018-06-24T11:42:53.201Z,3.30
2018-06-24T11:43:53.201Z,3.50
2018-06-24T11:45:14.203Z,3.00
2018-06-24T11:45:53.192Z,2.80
2018-06-24T11:46:53.188Z,3.30
2018-06-24T11:47:53.204Z,2.90
2018-06-24T11:48:53.185Z,2.90
2018-06-24T11:49:53.180Z,3.00
2018-06-24T11:51:14.183Z,2.70
2018-06-24T11:51:53.172Z,2.80
2018-06-24T11:52:53.169Z,2.20
2018-06-24T11:53:53.165Z,2.60
2018-06-24T11:54:53.165Z,2.30
2018-06-24T11:55:53.162Z,2.60
2018-06-24T11:57:14.182Z,2.60
2018-06-24T11:57:53.149Z,2.30
2018-06-24T11:58:53.153Z,2.60
2018-06-24T11:59:53.146Z,2.50
2018-06-24T12:00:53.144Z,2.40
2018-06-24T12:01:53.169Z,2.20
2018-06-24T12:03:14.140Z,2.40
2018-06-24T12:03:53.130Z,2.30
2018-06-24T12:04:53.128Z,2.50
2018-06-24T12:05:53.127Z,2.40
2018-06-24T12:06:53.139Z,2.10
2018-06-24T12:07:53.114Z,2.10
2018-06-24T12:09:14.120Z,2.50
2018-06-24T12:09:53.121Z,2.70
2018-06-24T12:10:53.183Z,2.30
2018-06-24T12:11:53.121Z,2.60
2018-06-24T12:12:53.097Z,2.20
2018-06-24T12:13:53.095Z,2.30
2018-06-24T12:15:14.095Z,2.40
2018-06-24T12:15:53.087Z,2.20
2018-06-24T12:16:53.081Z,3.10
2018-06-24T12:17:53.080Z,2.30
2018-06-24T12:18:53.078Z,2.90
2018-06-24T12:19:53.075Z,2.60
2018-06-24T12:21:14.201Z,2.10
2018-06-24T12:21:53.066Z,2.40
2018-06-24T12:22:53.060Z,2.30
2018-06-24T12:23:53.059Z,2.30
2018-06-24T12:24:53.057Z,2.40
2018-06-24T12:25:53.092Z,2.20
2018-06-24T12:27:14.135Z,2.10
2018-06-24T12:27:53.063Z,2.30
2018-06-24T12:28:53.038Z,2.20
2018-06-24T12:29:53.115Z,2.30
2018-06-24T12:30:53.032Z,2.30
2018-06-24T12:31:53.039Z,2.00
2018-06-24T12:33:14.058Z,2.00
2018-06-24T12:33:53.029Z,2.00
2018-06-24T12:34:53.016Z,1.90
2018-06-24T12:35:53.011Z,2.00
2018-06-24T12:36:53.009Z,2.00
2018-06-24T12:37:53.008Z,1.90
2018-06-24T12:39:14.007Z,1.90
2018-06-24T12:39:52.993Z,1.80
2018-06-24T12:40:52.989Z,3.50
2018-06-24T12:41:52.988Z,3.40
2018-06-24T12:42:53.014Z,3.30
2018-06-24T12:43:52.983Z,3.70
2018-06-24T12:45:13.984Z,2.50
2018-06-24T12:45:52.987Z,2.00
2018-06-24T12:46:52.964Z,2.00
2018-06-24T12:47:52.972Z,2.20
2018-06-24T12:48:52.956Z,2.50
2018-06-24T12:49:52.951Z,2.10
2018-06-24T12:51:13.965Z,2.40
2018-06-24T12:51:52.960Z,2.40
2018-06-24T12:52:53.007Z,2.30
2018-06-24T12:53:52.941Z,2.60
2018-06-24T12:54:52.937Z,2.50
2018-06-24T12:55:52.934Z,2.40
2018-06-24T12:57:13.938Z,2.10
2018-06-24T12:57:52.919Z,2.80
2018-06-24T12:58:53.051Z,2.30
2018-06-24T12:59:53.153Z,2.60
2018-06-24T13:00:53.557Z,2.80
2018-06-24T13:01:52.902Z,2.40
2018-06-24T13:03:13.930Z,2.30
2018-06-24T13:03:52.906Z,2.40
2018-06-24T13:04:52.897Z,2.40
2018-06-24T13:05:52.892Z,2.40
2018-06-24T13:06:52.884Z,2.50
2018-06-24T13:07:52.880Z,2.40
2018-06-24T13:09:13.885Z,2.70
2018-06-24T13:09:52.872Z,2.70
2018-06-24T13:10:52.864Z,2.50
2018-06-24T13:11:52.881Z,2.60
2018-06-24T13:12:52.857Z,2.80
2018-06-24T13:13:52.854Z,2.50
2018-06-24T13:15:13.857Z,2.60
2018-06-24T13:15:52.843Z,2.50
2018-06-24T13:16:52.848Z,2.60
2018-06-24T13:17:52.839Z,2.60
2018-06-24T13:18:52.856Z,2.70